createdAt,value
2022-12-24T00:01:34.168Z,10.50
2022-12-24T00:04:04.061Z,10.40
2022-12-24T00:06:32.258Z,10.50
2022-12-24T00:09:00.571Z,10.50
2022-12-24T00:11:28.968Z,10.50
2022-12-24T00:13:57.345Z,10.40
2022-12-24T00:16:25.703Z,10.40
2022-12-24T00:18:54.081Z,10.40
2022-12-24T00:21:23.653Z,10.40
2022-12-24T00:23:51.904Z,10.30
2022-12-24T00:26:20.160Z,10.30
2022-12-24T00:28:48.391Z,10.30
2022-12-24T00:31:19.568Z,10.20
2022-12-24T00:33:48.557Z,10.30
2022-12-24T00:36:17.937Z,10.20
2022-12-24T00:38:48.040Z,10.20
2022-12-24T00:41:26.424Z,10.20
2022-12-24T00:43:56.136Z,10.20
2022-12-24T00:46:24.866Z,10.20
2022-12-24T00:48:53.294Z,10.20
2022-12-24T00:51:23.384Z,10.30
2022-12-24T00:53:53.733Z,10.30
2022-12-24T00:56:22.354Z,10.30
2022-12-24T00:58:50.685Z,10.20
2022-12-24T01:01:19.102Z,10.30
2022-12-24T01:03:47.482Z,10.30
2022-12-24T01:06:16.694Z,10.30
2022-12-24T01:08:45.147Z,10.30
2022-12-24T01:11:15.053Z,10.30
2022-12-24T01:13:43.295Z,10.30
2022-12-24T01:16:16.980Z,10.30
2022-12-24T01:18:45.415Z,10.30
2022-12-24T01:21:16.253Z,10.30
2022-12-24T01:23:44.817Z,10.30
2022-12-24T01:26:14.723Z,10.30
2022-12-24T01:28:43.187Z,10.30
2022-12-24T01:31:13.367Z,10.40
2022-12-24T01:33:41.930Z,10.30
2022-12-24T01:36:10.868Z,10.30
2022-12-24T01:38:39.192Z,10.30
2022-12-24T01:41:24.980Z,10.40
2022-12-24T01:43:54.558Z,10.40
2022-12-24T01:46:27.590Z,10.30
2022-12-24T01:48:59.067Z,10.30
2022-12-24T01:51:35.825Z,10.20
2022-12-24T01:54:06.363Z,10.20
2022-12-24T01:56:37.936Z,10.20
2022-12-24T01:59:11.644Z,10.20
2022-12-24T02:01:40.771Z,10.20
2022-12-24T02:04:17.788Z,10.20
2022-12-24T02:06:46.035Z,10.20
2022-12-24T02:09:14.288Z,10.20
2022-12-24T02:11:44.965Z,10.20
2022-12-24T02:14:16.577Z,10.20
2022-12-24T02:16:52.213Z,10.20
2022-12-24T02:19:44.078Z,10.20
2022-12-24T02:22:18.386Z,10.20
2022-12-24T02:25:12.242Z,10.20
2022-12-24T02:27:51.220Z,10.20
2022-12-24T02:30:23.212Z,10.20
2022-12-24T02:33:05.781Z,10.20
2022-12-24T02:35:44.310Z,10.20
2022-12-24T02:38:18.440Z,10.20
2022-12-24T02:40:50.701Z,10.20
2022-12-24T02:43:24.431Z,10.20
2022-12-24T02:46:00.139Z,10.20
2022-12-24T02:48:30.533Z,10.20
2022-12-24T02:51:02.252Z,10.20
2022-12-24T02:53:30.637Z,10.20
2022-12-24T02:56:10.098Z,10.20
2022-12-24T02:58:53.506Z,10.20
2022-12-24T03:01:34.840Z,10.20
2022-12-24T03:04:15.981Z,10.10
2022-12-24T03:06:51.633Z,10.10
2022-12-24T03:09:26.962Z,10.20
2022-12-24T03:12:00.816Z,10.20
2022-12-24T03:14:30.275Z,10.20
2022-12-24T03:17:00.913Z,10.10
2022-12-24T03:19:29.780Z,10.20
2022-12-24T03:22:00.814Z,10.10
2022-12-24T03:24:29.165Z,10.00
2022-12-24T03:26:57.915Z,10.00
2022-12-24T03:29:26.126Z,10.00
2022-12-24T03:32:00.229Z,10.10
2022-12-24T03:34:29.864Z,10.00
2022-12-24T03:36:59.318Z,10.00
2022-12-24T03:39:27.525Z,9.90
2022-12-24T03:41:55.724Z,9.90
2022-12-24T03:44:23.940Z,9.90
2022-12-24T03:46:52.129Z,9.90
2022-12-24T03:49:20.347Z,9.90
2022-12-24T03:51:49.829Z,10.00
2022-12-24T03:54:18.058Z,10.00
2022-12-24T03:56:46.316Z,10.00
2022-12-24T03:59:14.520Z,10.10
2022-12-24T04:01:42.848Z,10.10
2022-12-24T04:04:11.182Z,10.00
2022-12-24T04:06:39.347Z,10.00
2022-12-24T04:09:09.028Z,10.00
2022-12-24T04:11:37.228Z,9.90
2022-12-24T04:14:05.451Z,10.00
2022-12-24T04:16:33.737Z,10.00
2022-12-24T04:19:01.959Z,10.00
2022-12-24T04:21:30.207Z,10.00
2022-12-24T04:23:58.581Z,10.00
2022-12-24T04:26:28.213Z,10.00
2022-12-24T04:28:56.441Z,10.00
2022-12-24T04:31:24.814Z,10.00
2022-12-24T04:33:53.604Z,10.00
2022-12-24T04:36:22.034Z,10.10
2022-12-24T04:38:50.522Z,10.10
2022-12-24T04:41:23.732Z,10.10
2022-12-24T04:43:55.317Z,10.10
2022-12-24T04:46:25.998Z,10.10
2022-12-24T04:48:55.351Z,10.10
2022-12-24T04:51:24.187Z,10.10
2022-12-24T04:53:52.473Z,10.10
2022-12-24T04:56:22.296Z,10.10
2022-12-24T04:58:51.179Z,10.20
2022-12-24T05:01:23.345Z,10.20
2022-12-24T05:03:52.153Z,10.20
2022-12-24T05:06:24.312Z,10.20
2022-12-24T05:08:55.403Z,10.20
2022-12-24T05:11:23.719Z,10.20
2022-12-24T05:13:52.073Z,10.20
2022-12-24T05:16:23.404Z,10.20
2022-12-24T05:18:52.116Z,10.20
2022-12-24T05:21:23.285Z,10.10
2022-12-24T05:24:09.534Z,10.10
2022-12-24T05:26:40.799Z,10.10
2022-12-24T05:29:12.131Z,10.20
2022-12-24T05:31:42.782Z,10.20
2022-12-24T05:34:11.219Z,10.20
2022-12-24T05:36:39.873Z,10.20
2022-12-24T05:39:13.438Z,10.20
2022-12-24T05:41:43.987Z,10.20
2022-12-24T05:44:12.357Z,10.20
2022-12-24T05:46:42.199Z,10.20
2022-12-24T05:49:10.646Z,10.20
2022-12-24T05:51:40.281Z,10.20
2022-12-24T05:54:08.922Z,10.20
2022-12-24T05:56:37.169Z,10.20
2022-12-24T05:59:05.541Z,10.20
2022-12-24T06:01:33.792Z,10.20
2022-12-24T06:04:03.503Z,10.20
2022-12-24T06:06:31.779Z,10.20
2022-12-24T06:08:59.966Z,10.20
2022-12-24T06:11:29.243Z,10.20
2022-12-24T06:13:58.247Z,10.20
2022-12-24T06:16:27.203Z,10.10
2022-12-24T06:18:55.594Z,10.10
2022-12-24T06:21:25.131Z,10.10
2022-12-24T06:23:53.474Z,10.10
2022-12-24T06:26:23.958Z,10.10
2022-12-24T06:28:52.634Z,10.10
2022-12-24T06:31:22.891Z,10.10
2022-12-24T06:33:51.453Z,10.10
2022-12-24T06:36:21.612Z,10.20
2022-12-24T06:38:52.019Z,10.20
2022-12-24T06:41:21.174Z,10.20
2022-12-24T06:43:51.447Z,10.10
2022-12-24T06:46:20.623Z,10.20
2022-12-24T06:48:49.968Z,10.10
2022-12-24T06:51:20.449Z,10.10
2022-12-24T06:53:51.623Z,10.10
2022-12-24T06:56:21.525Z,10.20
2022-12-24T06:58:50.239Z,10.20
2022-12-24T07:01:20.656Z,10.20
2022-12-24T07:03:49.141Z,10.30
2022-12-24T07:06:20.568Z,10.30
2022-12-24T07:08:50.275Z,10.30
2022-12-24T07:11:18.515Z,10.30
2022-12-24T07:13:47.703Z,10.30
2022-12-24T07:16:16.079Z,10.30
2022-12-24T07:18:44.334Z,10.30
2022-12-24T07:21:12.559Z,10.30
2022-12-24T07:23:40.785Z,10.30
2022-12-24T07:26:11.707Z,10.30
2022-12-24T07:28:39.934Z,10.30
2022-12-24T07:31:08.226Z,10.30
2022-12-24T07:33:36.498Z,10.30
2022-12-24T07:36:07.353Z,10.30
2022-12-24T07:38:36.793Z,10.40
2022-12-24T07:41:05.016Z,10.40
2022-12-24T07:43:35.150Z,10.40
2022-12-24T07:46:03.584Z,10.40
2022-12-24T07:48:33.155Z,10.40
2022-12-24T07:51:01.759Z,10.40
2022-12-24T07:53:30.894Z,10.40
2022-12-24T07:55:59.478Z,10.40
2022-12-24T07:58:27.898Z,10.40
2022-12-24T08:01:01.223Z,10.40
2022-12-24T08:03:29.580Z,10.40
2022-12-24T08:05:58.516Z,10.40
2022-12-24T08:08:27.106Z,10.40
2022-12-24T08:10:55.346Z,10.40
2022-12-24T08:13:23.517Z,10.50
2022-12-24T08:15:51.792Z,10.40
2022-12-24T08:18:21.410Z,10.50
2022-12-24T08:20:49.803Z,10.50
2022-12-24T08:23:18.162Z,10.50
2022-12-24T08:25:47.426Z,10.40
2022-12-24T08:28:17.836Z,10.40
2022-12-24T08:30:46.859Z,10.50
2022-12-24T08:33:15.065Z,10.50
2022-12-24T08:35:49.115Z,10.50
2022-12-24T08:38:17.815Z,10.50
2022-12-24T08:40:47.266Z,10.50
2022-12-24T08:43:15.640Z,10.50
2022-12-24T08:45:44.197Z,10.60
2022-12-24T08:48:12.793Z,10.60
2022-12-24T08:50:42.061Z,10.60
2022-12-24T08:53:12.546Z,10.60
2022-12-24T08:55:40.840Z,10.60
2022-12-24T08:58:09.026Z,10.70
2022-12-24T09:00:37.314Z,10.70
2022-12-24T09:03:05.624Z,10.70
2022-12-24T09:05:33.862Z,10.70
2022-12-24T09:08:02.689Z,10.70
2022-12-24T09:10:32.236Z,10.80
2022-12-24T09:13:00.443Z,10.70
2022-12-24T09:15:28.674Z,10.70
2022-12-24T09:17:56.848Z,10.80
2022-12-24T09:20:25.144Z,10.80
2022-12-24T09:22:54.336Z,10.80
2022-12-24T09:25:22.603Z,10.90
2022-12-24T09:27:52.133Z,10.90
2022-12-24T09:30:21.021Z,10.90
2022-12-24T09:32:49.215Z,10.90
2022-12-24T09:35:17.651Z,11.00
2022-12-24T09:37:45.863Z,11.00
2022-12-24T09:40:25.474Z,11.10
2022-12-24T09:42:55.749Z,11.10
2022-12-24T09:45:30.141Z,11.10
2022-12-24T09:48:03.237Z,11.10
2022-12-24T09:50:40.858Z,11.10
2022-12-24T09:53:18.971Z,11.00
2022-12-24T09:55:50.709Z,11.00
2022-12-24T09:58:31.014Z,11.00
2022-12-24T10:00:59.325Z,11.00
2022-12-24T10:03:27.725Z,11.00
2022-12-24T10:06:07.936Z,11.00
2022-12-24T10:08:48.398Z,11.00
2022-12-24T10:11:23.433Z,11.00
2022-12-24T10:14:04.877Z,11.00
2022-12-24T10:16:41.088Z,11.00
2022-12-24T10:19:17.427Z,11.00
2022-12-24T10:21:59.389Z,11.10
2022-12-24T10:24:34.698Z,11.00
2022-12-24T10:27:06.939Z,11.10
2022-12-24T10:29:40.260Z,11.10
2022-12-24T10:32:22.078Z,11.20
2022-12-24T10:34:58.760Z,11.20
2022-12-24T10:37:29.557Z,11.30
2022-12-24T10:39:59.257Z,11.30
2022-12-24T10:42:38.424Z,11.30
2022-12-24T10:45:09.415Z,11.30
2022-12-24T10:47:39.222Z,11.20
2022-12-24T10:50:15.507Z,11.20
2022-12-24T10:52:46.468Z,11.20
2022-12-24T10:55:24.657Z,11.30
2022-12-24T10:58:03.023Z,11.50
2022-12-24T11:00:36.467Z,11.70
2022-12-24T11:03:22.760Z,11.70
2022-12-24T11:06:04.631Z,11.70
2022-12-24T11:08:33.939Z,11.60
2022-12-24T11:11:03.960Z,11.60
2022-12-24T11:13:38.251Z,11.60
2022-12-24T11:16:16.135Z,11.70
2022-12-24T11:18:51.625Z,11.70
2022-12-24T11:21:23.868Z,11.70
2022-12-24T11:23:55.495Z,11.70
2022-12-24T11:26:25.937Z,11.70
2022-12-24T11:29:16.217Z,11.60
2022-12-24T11:31:46.696Z,11.60
2022-12-24T11:34:29.301Z,11.60
2022-12-24T11:37:14.613Z,11.50
2022-12-24T11:39:48.596Z,11.50
2022-12-24T11:42:34.718Z,11.50
2022-12-24T11:45:05.613Z,11.50
2022-12-24T11:47:37.526Z,11.60
2022-12-24T11:50:25.014Z,11.60
2022-12-24T11:53:00.158Z,11.60
2022-12-24T11:55:43.320Z,11.70
2022-12-24T11:58:22.792Z,11.80
2022-12-24T12:00:53.112Z,11.80
2022-12-24T12:03:32.080Z,11.70
2022-12-24T12:06:05.120Z,11.70
2022-12-24T12:08:35.715Z,11.60
2022-12-24T12:11:10.140Z,11.60
2022-12-24T12:13:41.810Z,11.60
2022-12-24T12:16:20.646Z,11.60
2022-12-24T12:18:58.270Z,11.60
2022-12-24T12:21:33.036Z,11.70
2022-12-24T12:24:06.918Z,11.70
2022-12-24T12:26:35.451Z,11.70
2022-12-24T12:29:12.402Z,11.60
2022-12-24T12:31:46.059Z,11.60
2022-12-24T12:34:21.330Z,11.50
2022-12-24T12:36:52.776Z,11.40
2022-12-24T12:39:21.160Z,11.40
2022-12-24T12:41:57.391Z,11.30
2022-12-24T12:44:49.571Z,11.30
2022-12-24T12:47:39.343Z,11.30
2022-12-24T12:50:17.399Z,11.30
2022-12-24T12:53:06.257Z,11.40
2022-12-24T12:55:45.894Z,11.30
2022-12-24T12:58:21.453Z,11.30
2022-12-24T13:00:56.301Z,11.30
2022-12-24T13:03:44.772Z,11.30
2022-12-24T13:06:32.123Z,11.30
2022-12-24T13:09:22.139Z,11.30
2022-12-24T13:12:16.049Z,11.30
2022-12-24T13:15:03.638Z,11.40
2022-12-24T13:17:51.105Z,11.50
2022-12-24T13:20:24.267Z,11.60
2022-12-24T13:22:59.058Z,11.60
2022-12-24T13:25:37.868Z,11.60
2022-12-24T13:28:38.699Z,11.50
2022-12-24T13:31:34.171Z,11.40
2022-12-24T13:34:03.842Z,11.30
2022-12-24T13:37:04.092Z,11.30
2022-12-24T13:40:14.786Z,11.30
2022-12-24T13:42:49.817Z,11.30
2022-12-24T13:45:47.098Z,11.30
2022-12-24T13:48:26.496Z,11.30
2022-12-24T13:50:56.279Z,11.30
2022-12-24T13:53:30.011Z,11.30
2022-12-24T13:56:06.812Z,11.30
2022-12-24T13:58:37.535Z,11.40
2022-12-24T14:01:09.841Z,11.40
2022-12-24T14:03:44.593Z,11.50
2022-12-24T14:06:22.025Z,11.60
2022-12-24T14:08:52.708Z,11.60
2022-12-24T14:11:24.838Z,11.50
2022-12-24T14:14:15.939Z,11.40
2022-12-24T14:16:48.816Z,11.40
2022-12-24T14:19:21.939Z,11.30
2022-12-24T14:21:57.927Z,11.30
2022-12-24T14:24:28.880Z,11.20
2022-12-24T14:27:07.392Z,11.10
2022-12-24T14:29:41.580Z,11.10
2022-12-24T14:32:16.258Z,11.10
2022-12-24T14:34:45.180Z,11.00
2022-12-24T14:37:14.747Z,11.00
2022-12-24T14:39:47.440Z,10.90
2022-12-24T14:42:35.407Z,10.90
2022-12-24T14:45:15.958Z,10.90
2022-12-24T14:47:51.214Z,10.80
2022-12-24T14:50:47.273Z,10.80
2022-12-24T14:53:26.848Z,10.70
2022-12-24T14:55:55.216Z,10.60
2022-12-24T14:58:29.743Z,10.60
2022-12-24T15:00:59.808Z,10.60
2022-12-24T15:03:30.258Z,10.60
2022-12-24T15:06:00.761Z,10.50
2022-12-24T15:08:34.711Z,10.50
2022-12-24T15:11:06.850Z,10.40
2022-12-24T15:13:39.246Z,10.50
2022-12-24T15:16:10.881Z,10.50
2022-12-24T15:18:44.146Z,10.50
2022-12-24T15:21:18.996Z,10.50
2022-12-24T15:23:49.682Z,10.50
2022-12-24T15:26:23.834Z,10.50
2022-12-24T15:29:01.847Z,10.50
2022-12-24T15:31:31.048Z,10.50
2022-12-24T15:34:00.335Z,10.40
2022-12-24T15:36:32.482Z,10.50
2022-12-24T15:39:03.989Z,10.50
2022-12-24T15:41:59.310Z,10.50
2022-12-24T15:44:30.857Z,10.50
2022-12-24T15:47:01.136Z,10.50
2022-12-24T15:49:30.845Z,10.40
2022-12-24T15:52:05.016Z,10.40
2022-12-24T15:54:33.712Z,10.40
2022-12-24T15:57:14.419Z,10.40
2022-12-24T15:59:44.224Z,10.40
2022-12-24T16:02:38.439Z,10.30
2022-12-24T16:05:32.905Z,10.30
2022-12-24T16:08:09.130Z,10.10
2022-12-24T16:10:40.495Z,10.10
2022-12-24T16:13:15.813Z,9.90
2022-12-24T16:15:51.631Z,9.90
2022-12-24T16:18:25.481Z,9.90
2022-12-24T16:20:56.705Z,9.80
2022-12-24T16:23:27.083Z,9.80
2022-12-24T16:25:55.387Z,9.80
2022-12-24T16:28:23.656Z,9.80
2022-12-24T16:30:55.639Z,9.80
2022-12-24T16:33:24.283Z,9.70
2022-12-24T16:35:52.593Z,9.70
2022-12-24T16:38:20.841Z,9.60
2022-12-24T16:40:49.260Z,9.60
2022-12-24T16:43:34.842Z,9.60
2022-12-24T16:46:06.261Z,9.60
2022-12-24T16:48:39.584Z,9.50
2022-12-24T16:51:08.413Z,9.50
2022-12-24T16:53:36.585Z,9.40
2022-12-24T16:56:05.388Z,9.40
2022-12-24T16:58:33.656Z,9.40
2022-12-24T17:01:10.089Z,9.30
2022-12-24T17:03:38.617Z,9.30
2022-12-24T17:06:09.269Z,9.30
2022-12-24T17:08:37.630Z,9.20
2022-12-24T17:11:05.964Z,9.20
2022-12-24T17:13:34.308Z,9.20
2022-12-24T17:16:03.315Z,9.20
2022-12-24T17:18:33.092Z,9.20
2022-12-24T17:21:03.635Z,9.20
2022-12-24T17:23:32.158Z,9.10
2022-12-24T17:26:00.413Z,9.10
2022-12-24T17:28:28.760Z,9.20
2022-12-24T17:30:58.758Z,9.20
2022-12-24T17:33:27.012Z,9.20
2022-12-24T17:35:56.841Z,9.10
2022-12-24T17:38:25.103Z,9.00
2022-12-24T17:40:53.351Z,9.00
2022-12-24T17:43:21.525Z,9.00
2022-12-24T17:45:49.737Z,8.90
2022-12-24T17:48:17.905Z,8.90
2022-12-24T17:50:46.175Z,8.90
2022-12-24T17:53:15.814Z,8.90
2022-12-24T17:55:44.601Z,8.80
2022-12-24T17:58:14.140Z,8.70
2022-12-24T18:00:42.692Z,8.70
2022-12-24T18:03:14.994Z,8.70
2022-12-24T18:05:43.381Z,8.60
2022-12-24T18:08:11.646Z,8.70
2022-12-24T18:10:41.540Z,8.70
2022-12-24T18:13:14.036Z,8.60
2022-12-24T18:15:47.220Z,8.50
2022-12-24T18:18:15.465Z,8.30
2022-12-24T18:20:46.917Z,8.30
2022-12-24T18:23:15.462Z,8.20
2022-12-24T18:25:45.152Z,8.20
2022-12-24T18:28:13.300Z,8.10
2022-12-24T18:30:41.699Z,8.20
2022-12-24T18:33:09.949Z,8.10
2022-12-24T18:35:38.296Z,8.10
2022-12-24T18:38:06.590Z,8.10
2022-12-24T18:40:38.069Z,8.10
2022-12-24T18:43:07.618Z,8.00
2022-12-24T18:45:35.855Z,7.90
2022-12-24T18:48:04.198Z,7.90
2022-12-24T18:50:32.375Z,7.80
2022-12-24T18:53:00.604Z,7.70
2022-12-24T18:55:28.934Z,7.70
2022-12-24T18:57:57.207Z,7.70
2022-12-24T19:00:26.842Z,7.70
2022-12-24T19:02:55.209Z,7.60
2022-12-24T19:05:23.526Z,7.50
2022-12-24T19:07:51.728Z,7.50
2022-12-24T19:10:20.026Z,7.40
2022-12-24T19:12:48.207Z,7.30
2022-12-24T19:15:16.512Z,7.20
2022-12-24T19:17:46.128Z,7.20
2022-12-24T19:20:15.307Z,7.10
2022-12-24T19:22:43.466Z,7.00
2022-12-24T19:25:11.862Z,6.90
2022-12-24T19:27:40.150Z,7.00
2022-12-24T19:30:09.361Z,7.00
2022-12-24T19:32:37.585Z,6.90
2022-12-24T19:35:07.655Z,6.80
2022-12-24T19:37:35.927Z,6.80
2022-12-24T19:40:04.341Z,6.80
2022-12-24T19:42:33.639Z,6.80
2022-12-24T19:45:02.635Z,6.80
2022-12-24T19:47:30.928Z,6.80
2022-12-24T19:49:59.566Z,6.70
2022-12-24T19:52:29.506Z,6.70
2022-12-24T19:54:58.416Z,6.70
2022-12-24T19:57:36.670Z,6.60
2022-12-24T20:00:11.701Z,6.70
2022-12-24T20:02:42.742Z,6.60
2022-12-24T20:05:11.255Z,6.60
2022-12-24T20:07:40.819Z,6.60
2022-12-24T20:10:10.250Z,6.70
2022-12-24T20:12:38.482Z,6.60
2022-12-24T20:15:07.999Z,6.60
2022-12-24T20:17:36.175Z,6.60
2022-12-24T20:20:04.891Z,6.60
2022-12-24T20:22:33.256Z,6.50
2022-12-24T20:25:02.885Z,6.50
2022-12-24T20:27:31.454Z,6.60
2022-12-24T20:29:59.655Z,6.60
2022-12-24T20:32:29.536Z,6.60
2022-12-24T20:34:58.095Z,6.70
2022-12-24T20:37:26.660Z,6.60
2022-12-24T20:39:55.532Z,6.60
2022-12-24T20:42:25.192Z,6.70
2022-12-24T20:44:53.636Z,6.60
2022-12-24T20:47:21.957Z,6.60
2022-12-24T20:49:50.206Z,6.70
2022-12-24T20:52:18.536Z,6.70
2022-12-24T20:54:46.873Z,6.70
2022-12-24T20:57:17.669Z,6.60
2022-12-24T20:59:51.281Z,6.60
2022-12-24T21:02:19.513Z,6.60
2022-12-24T21:04:47.907Z,6.60
2022-12-24T21:07:16.856Z,6.60
2022-12-24T21:09:45.064Z,6.60
2022-12-24T21:12:30.847Z,6.50
2022-12-24T21:15:00.390Z,6.50
2022-12-24T21:17:29.702Z,6.50
2022-12-24T21:19:58.754Z,6.50
2022-12-24T21:22:27.139Z,6.50
2022-12-24T21:24:55.433Z,6.50
2022-12-24T21:27:23.716Z,6.50
2022-12-24T21:29:52.032Z,6.50
2022-12-24T21:32:21.625Z,6.50
2022-12-24T21:34:49.945Z,6.50
2022-12-24T21:37:18.192Z,6.60
2022-12-24T21:39:46.424Z,6.60
2022-12-24T21:42:14.653Z,6.60
2022-12-24T21:44:43.024Z,6.60
2022-12-24T21:47:11.271Z,6.60
2022-12-24T21:49:58.544Z,6.60
2022-12-24T21:52:26.826Z,6.60
2022-12-24T21:54:54.045Z,6.50
2022-12-24T21:57:39.492Z,6.50
2022-12-24T22:00:26.648Z,6.50
2022-12-24T22:02:58.264Z,6.60
2022-12-24T22:05:28.728Z,6.60
2022-12-24T22:08:14.598Z,6.60
2022-12-24T22:11:00.141Z,6.60
2022-12-24T22:13:30.740Z,6.60
2022-12-24T22:15:59.145Z,6.60
2022-12-24T22:18:27.430Z,6.50
2022-12-24T22:20:57.808Z,6.40
2022-12-24T22:23:26.146Z,6.50
2022-12-24T22:25:54.870Z,6.60
2022-12-24T22:28:23.071Z,6.60
2022-12-24T22:30:51.285Z,6.60
2022-12-24T22:33:19.647Z,6.60
2022-12-24T22:35:47.803Z,6.70
2022-12-24T22:38:17.526Z,6.60
2022-12-24T22:40:45.717Z,6.70
2022-12-24T22:43:13.912Z,6.60
2022-12-24T22:45:42.114Z,6.70
2022-12-24T22:48:11.219Z,6.70
2022-12-24T22:50:40.985Z,6.60
2022-12-24T22:53:09.379Z,6.50
2022-12-24T22:55:38.968Z,6.50
2022-12-24T22:58:07.170Z,6.40
2022-12-24T23:00:41.155Z,6.40
2022-12-24T23:03:10.535Z,6.40
2022-12-24T23:05:38.923Z,6.40
2022-12-24T23:08:08.541Z,6.40
2022-12-24T23:10:38.395Z,6.40
2022-12-24T23:13:24.072Z,6.40
2022-12-24T23:15:52.877Z,6.30
2022-12-24T23:18:21.119Z,6.20
2022-12-24T23:20:49.287Z,6.30
2022-12-24T23:23:17.641Z,6.30
2022-12-24T23:25:47.217Z,6.20
2022-12-24T23:28:15.409Z,6.10
2022-12-24T23:30:43.728Z,6.00
2022-12-24T23:33:11.971Z,6.00
2022-12-24T23:35:40.145Z,6.00
2022-12-24T23:38:08.376Z,5.80
2022-12-24T23:40:36.577Z,5.80
2022-12-24T23:43:06.166Z,5.80
2022-12-24T23:45:34.486Z,5.70
2022-12-24T23:48:02.719Z,5.80
2022-12-24T23:50:31.117Z,5.80
2022-12-24T23:52:59.266Z,5.80
2022-12-24T23:55:28.109Z,5.80
2022-12-24T23:57:56.298Z,5.80
